createdAt,value
2019-04-29T00:01:37.369Z,93116.33
2019-04-29T00:04:07.184Z,93099.28
2019-04-29T00:06:37.052Z,93064.91
2019-04-29T00:09:14.100Z,93024.34
2019-04-29T00:11:44.391Z,93126.90
2019-04-29T00:14:14.396Z,93079.72
2019-04-29T00:16:50.790Z,93060.40
2019-04-29T00:19:26.058Z,93023.16
2019-04-29T00:21:55.871Z,93087.20
2019-04-29T00:24:25.597Z,93046.59
2019-04-29T00:26:55.378Z,92979.69
2019-04-29T00:29:25.821Z,92938.47
2019-04-29T00:31:55.536Z,92890.66
2019-04-29T00:34:25.225Z,92936.88
2019-04-29T00:37:16.210Z,92998.88
2019-04-29T00:40:03.550Z,92929.53
2019-04-29T00:42:38.701Z,92938.47
2019-04-29T00:45:08.808Z,92943.78
2019-04-29T00:47:38.534Z,92903.70
2019-04-29T00:50:08.275Z,92870.00
2019-04-29T00:52:38.034Z,92920.09
2019-04-29T00:55:15.511Z,92985.95
2019-04-29T00:57:46.796Z,92918.40
2019-04-29T01:00:19.669Z,92858.22
2019-04-29T01:02:49.593Z,92943.32
2019-04-29T01:05:19.685Z,92992.73
2019-04-29T01:07:49.455Z,92919.80
2019-04-29T01:10:20.432Z,92898.77
2019-04-29T01:12:50.322Z,92792.53
2019-04-29T01:15:22.233Z,92857.08
2019-04-29T01:17:52.073Z,92857.92
2019-04-29T01:20:21.814Z,92747.96
2019-04-29T01:22:53.213Z,92742.20
2019-04-29T01:25:23.080Z,92739.77
2019-04-29T01:27:54.442Z,92688.53
2019-04-29T01:30:39.584Z,92670.86
2019-04-29T01:33:09.478Z,92570.15
2019-04-29T01:35:41.055Z,92638.38
2019-04-29T01:38:10.891Z,92697.88
2019-04-29T01:40:59.674Z,92704.81
2019-04-29T01:43:47.856Z,92670.66
2019-04-29T01:46:17.664Z,92678.93
2019-04-29T01:48:47.437Z,92751.11
2019-04-29T01:51:17.290Z,92742.23
2019-04-29T01:53:52.381Z,92655.88
2019-04-29T01:56:22.204Z,92660.91
2019-04-29T01:58:52.061Z,92664.41
2019-04-29T02:01:22.003Z,92620.22
2019-04-29T02:04:00.067Z,92484.33
2019-04-29T02:06:30.114Z,92533.83
2019-04-29T02:09:05.289Z,92522.41
2019-04-29T02:11:35.063Z,92528.62
2019-04-29T02:14:05.161Z,92593.92
2019-04-29T02:16:34.897Z,92563.06
2019-04-29T02:19:04.669Z,92511.88
2019-04-29T02:21:34.507Z,92633.95
2019-04-29T02:24:05.838Z,92588.87
2019-04-29T02:26:35.632Z,92451.38
2019-04-29T02:29:05.457Z,92487.92
2019-04-29T02:31:36.754Z,92480.27
2019-04-29T02:34:07.109Z,92506.03
2019-04-29T02:36:37.472Z,92480.91
2019-04-29T02:39:27.647Z,92462.64
2019-04-29T02:42:02.172Z,92433.05
2019-04-29T02:44:32.025Z,92465.50
2019-04-29T02:47:01.848Z,92413.42
2019-04-29T02:49:31.667Z,92344.34
2019-04-29T02:52:01.433Z,92345.42
2019-04-29T02:54:31.223Z,92459.42
2019-04-29T02:57:17.879Z,92377.66
2019-04-29T02:59:50.225Z,91381.92
2019-04-29T03:02:21.535Z,92283.00
2019-04-29T03:04:53.011Z,92269.16
2019-04-29T03:07:22.862Z,92214.81
2019-04-29T03:09:52.655Z,92137.61
2019-04-29T03:12:22.522Z,92163.86
2019-04-29T03:14:52.532Z,92210.30
2019-04-29T03:17:22.431Z,92233.98
2019-04-29T03:20:13.588Z,92247.84
2019-04-29T03:22:47.462Z,92159.28
2019-04-29T03:25:17.247Z,92039.41
2019-04-29T03:27:48.740Z,92074.20
2019-04-29T03:30:20.072Z,92044.94
2019-04-29T03:32:54.043Z,91994.13
2019-04-29T03:35:23.850Z,91947.67
2019-04-29T03:37:53.636Z,91992.67
2019-04-29T03:40:23.409Z,92039.13
2019-04-29T03:42:53.226Z,92051.18
2019-04-29T03:45:23.023Z,91958.88
2019-04-29T03:47:52.815Z,92005.50
2019-04-29T03:50:22.554Z,92158.14
2019-04-29T03:52:54.010Z,92111.24
2019-04-29T03:55:38.811Z,92034.21
2019-04-29T03:57:59.366Z,91967.24
2019-04-29T04:00:31.426Z,91979.41
2019-04-29T04:03:08.915Z,91944.81
2019-04-29T04:05:40.870Z,91968.41
2019-04-29T04:08:18.038Z,91988.64
2019-04-29T04:10:47.831Z,91947.75
2019-04-29T04:13:18.781Z,92057.03
2019-04-29T04:15:48.676Z,92079.45
2019-04-29T04:18:20.073Z,92050.03
2019-04-29T04:20:49.811Z,92144.69
2019-04-29T04:23:20.499Z,92189.81
2019-04-29T04:25:50.346Z,92230.87
2019-04-29T04:28:20.611Z,92335.63
2019-04-29T04:30:56.289Z,92627.12
2019-04-29T04:33:26.530Z,92878.39
2019-04-29T04:35:56.331Z,93045.40
2019-04-29T04:38:26.187Z,93177.08
2019-04-29T04:41:03.494Z,93327.85
2019-04-29T04:43:38.745Z,93461.72
2019-04-29T04:46:10.145Z,93578.01
2019-04-29T04:49:08.117Z,93546.53
2019-04-29T04:51:47.404Z,93464.33
2019-04-29T04:57:28.643Z,93166.48
2019-04-29T05:00:00.105Z,93082.55
2019-04-29T05:02:31.368Z,93020.48
2019-04-29T05:05:02.776Z,92908.87
2019-04-29T05:07:32.622Z,92840.74
2019-04-29T05:10:05.155Z,92852.31
2019-04-29T05:12:39.643Z,92896.32
2019-04-29T05:15:10.487Z,92865.78
2019-04-29T05:17:43.200Z,92885.53
2019-04-29T05:20:14.183Z,92906.59
2019-04-29T05:22:46.916Z,92952.92
2019-04-29T05:25:19.565Z,92999.48
2019-04-29T05:27:50.022Z,93044.23
2019-04-29T05:30:19.724Z,93056.89
2019-04-29T05:32:50.399Z,93046.44
2019-04-29T05:35:24.824Z,92999.48
2019-04-29T05:37:58.724Z,93042.77
2019-04-29T05:40:42.270Z,93050.16
2019-04-29T05:43:13.966Z,93142.92
2019-04-29T05:45:54.417Z,93217.87
2019-04-29T05:48:27.559Z,93238.95
2019-04-29T05:51:07.822Z,93274.66
2019-04-29T05:53:42.926Z,93350.48
2019-04-29T05:56:12.616Z,93429.88
2019-04-29T05:58:42.297Z,93502.73
2019-04-29T06:01:17.224Z,93556.69
2019-04-29T06:03:46.986Z,93672.45
2019-04-29T06:06:16.821Z,93671.39
2019-04-29T06:08:46.683Z,93670.52
2019-04-29T06:11:16.688Z,93707.55
2019-04-29T06:13:48.609Z,93702.48
2019-04-29T06:16:20.856Z,93717.84
2019-04-29T06:18:59.372Z,93720.48
2019-04-29T06:21:23.752Z,93714.55
2019-04-29T06:23:59.282Z,93718.39
2019-04-29T06:26:30.576Z,93713.69
2019-04-29T06:29:05.802Z,93704.81
2019-04-29T06:31:36.810Z,93677.16
2019-04-29T06:34:06.604Z,93700.63
2019-04-29T06:36:39.490Z,93696.42
2019-04-29T06:39:09.239Z,93716.83
2019-04-29T06:41:44.623Z,93709.89
2019-04-29T06:44:16.098Z,93697.31
2019-04-29T06:46:42.893Z,93693.48
2019-04-29T06:49:12.631Z,93687.33
2019-04-29T06:51:42.392Z,93697.41
2019-04-29T06:54:11.963Z,93688.64
2019-04-29T06:56:43.361Z,93682.25
2019-04-29T06:59:14.766Z,93687.98
2019-04-29T07:01:47.349Z,93683.56
2019-04-29T07:04:17.965Z,93664.61
2019-04-29T07:06:57.207Z,93641.25
2019-04-29T07:09:20.636Z,93645.08
2019-04-29T07:11:51.577Z,93608.22
2019-04-29T07:14:21.936Z,93588.41
2019-04-29T07:16:51.847Z,93590.84
2019-04-29T07:19:22.253Z,93608.86
2019-04-29T07:21:56.566Z,93627.48
2019-04-29T07:24:28.232Z,93617.09
2019-04-29T07:27:02.816Z,93614.00
2019-04-29T07:29:33.608Z,93644.41
2019-04-29T07:32:04.816Z,93645.75
2019-04-29T07:34:39.205Z,93648.14
2019-04-29T07:37:06.460Z,93631.37
2019-04-29T07:39:36.242Z,93627.34
2019-04-29T07:42:05.999Z,93598.69
2019-04-29T07:44:54.140Z,93588.92
2019-04-29T07:47:29.063Z,93617.58
2019-04-29T07:49:56.973Z,93608.34
2019-04-29T07:52:26.800Z,93579.06
2019-04-29T07:54:57.043Z,93564.80
2019-04-29T07:57:26.746Z,93562.70
2019-04-29T07:59:56.507Z,93567.98
2019-04-29T08:02:26.218Z,93581.73
2019-04-29T08:04:55.975Z,93608.62
2019-04-29T08:07:26.188Z,93635.03
2019-04-29T08:09:56.177Z,93625.30
2019-04-29T08:12:26.721Z,93614.80
2019-04-29T08:14:58.567Z,93616.34
2019-04-29T08:17:28.562Z,93632.37
2019-04-29T08:20:00.672Z,93642.34
2019-04-29T08:22:30.856Z,93647.19
2019-04-29T08:25:00.757Z,93640.00
2019-04-29T08:27:39.504Z,93686.64
2019-04-29T08:30:02.243Z,93693.78
2019-04-29T08:32:36.420Z,93683.52
2019-04-29T08:35:03.976Z,93685.28
2019-04-29T08:37:33.734Z,93691.14
2019-04-29T08:40:16.001Z,93686.23
2019-04-29T08:42:41.431Z,93684.28
2019-04-29T08:45:11.375Z,93695.57
2019-04-29T08:47:42.933Z,93679.16
2019-04-29T08:50:14.970Z,93670.00
2019-04-29T08:52:47.192Z,93669.58
2019-04-29T08:55:19.381Z,93646.03
2019-04-29T08:57:51.917Z,93653.56
2019-04-29T09:00:27.712Z,93659.48
2019-04-29T09:02:57.523Z,93664.64
2019-04-29T09:05:28.459Z,93667.11
2019-04-29T09:08:01.404Z,93669.25
2019-04-29T09:10:32.972Z,93683.41
2019-04-29T09:13:05.498Z,93685.22
2019-04-29T09:15:38.794Z,93689.45
2019-04-29T09:18:11.136Z,93566.51
2019-04-29T09:20:40.005Z,93686.48
2019-04-29T09:23:14.037Z,93680.03
2019-04-29T09:25:45.396Z,93679.23
2019-04-29T09:28:22.469Z,93665.13
2019-04-29T09:30:49.816Z,93666.87
2019-04-29T09:33:22.204Z,93661.90
2019-04-29T09:35:51.946Z,93665.94
2019-04-29T09:38:23.625Z,93646.17
2019-04-29T09:41:04.548Z,93653.12
2019-04-29T09:43:41.040Z,93650.91
2019-04-29T09:46:12.619Z,93664.98
2019-04-29T09:48:42.431Z,93640.98
2019-04-29T09:51:17.508Z,93638.92
2019-04-29T09:53:43.630Z,93648.73
2019-04-29T09:56:13.879Z,93630.92
2019-04-29T09:58:43.671Z,93643.95
2019-04-29T10:01:20.309Z,93641.31
2019-04-29T10:04:00.052Z,93623.56
2019-04-29T10:06:39.901Z,93635.38
2019-04-29T10:09:10.121Z,93631.95
2019-04-29T10:11:40.915Z,93637.09
2019-04-29T10:14:10.755Z,93624.27
2019-04-29T10:16:51.174Z,93628.48
2019-04-29T10:19:25.982Z,93632.48
2019-04-29T10:21:56.050Z,93615.81
2019-04-29T10:24:28.908Z,93621.39
2019-04-29T10:26:58.636Z,93616.02
2019-04-29T10:29:30.388Z,93592.01
2019-04-29T10:32:02.442Z,93582.72
2019-04-29T10:34:33.894Z,93581.77
2019-04-29T10:37:05.245Z,93592.23
2019-04-29T10:39:42.240Z,93610.58
2019-04-29T10:42:14.373Z,93606.94
2019-04-29T10:44:48.357Z,93611.46
2019-04-29T10:47:36.160Z,93617.95
2019-04-29T10:50:14.967Z,93615.14
2019-04-29T10:52:43.498Z,93611.69
2019-04-29T10:55:14.045Z,93610.58
2019-04-29T10:57:44.804Z,93617.47
2019-04-29T11:00:35.804Z,93635.63
2019-04-29T11:03:05.690Z,93634.95
2019-04-29T11:05:36.990Z,93636.44
2019-04-29T11:08:08.341Z,93625.44
2019-04-29T11:10:39.461Z,93623.21
2019-04-29T11:13:09.146Z,93622.04
2019-04-29T11:15:39.001Z,93621.08
2019-04-29T11:18:08.868Z,93625.48
2019-04-29T11:20:38.535Z,93616.25
2019-04-29T11:23:16.408Z,93588.02
2019-04-29T11:26:02.091Z,93611.42
2019-04-29T11:28:34.165Z,93597.41
2019-04-29T11:31:04.140Z,93576.41
2019-04-29T11:33:40.103Z,93572.28
2019-04-29T11:36:12.303Z,93600.03
2019-04-29T11:38:44.487Z,93573.03
2019-04-29T11:41:19.727Z,93570.80
2019-04-29T11:43:50.974Z,93558.45
2019-04-29T11:46:22.891Z,93560.58
2019-04-29T11:48:54.732Z,93541.05
2019-04-29T11:51:26.050Z,93556.48
2019-04-29T11:53:55.763Z,93558.21
2019-04-29T11:56:27.903Z,93558.72
2019-04-29T11:59:01.766Z,93558.15
2019-04-29T12:01:51.828Z,93552.70
2019-04-29T12:04:34.750Z,93555.43
2019-04-29T12:07:04.527Z,93557.00
2019-04-29T12:09:36.107Z,93559.29
2019-04-29T12:12:07.948Z,93567.53
2019-04-29T12:14:46.224Z,93544.51
2019-04-29T12:17:23.480Z,93560.37
2019-04-29T12:19:55.835Z,93564.02
2019-04-29T12:22:30.863Z,93559.26
2019-04-29T12:25:03.453Z,93564.23
2019-04-29T12:27:33.363Z,93546.39
2019-04-29T12:30:05.532Z,93531.50
2019-04-29T12:32:37.023Z,93545.08
2019-04-29T12:35:08.767Z,93552.14
2019-04-29T12:37:39.946Z,93536.03
2019-04-29T12:40:20.468Z,93538.88
2019-04-29T12:42:55.404Z,93493.86
2019-04-29T12:45:29.851Z,93499.23
2019-04-29T12:47:59.634Z,93478.59
2019-04-29T12:50:29.391Z,93492.63
2019-04-29T12:52:59.209Z,93503.41
2019-04-29T12:55:44.073Z,93493.27
2019-04-29T12:58:05.264Z,93494.11
2019-04-29T13:00:47.336Z,93510.24
2019-04-29T13:03:17.130Z,93508.58
2019-04-29T13:06:09.685Z,93517.59
2019-04-29T13:08:46.397Z,93515.61
2019-04-29T13:11:19.236Z,93504.66
2019-04-29T13:13:51.373Z,93494.91
2019-04-29T13:16:31.503Z,93486.70
2019-04-29T13:19:17.083Z,93475.86
2019-04-29T13:21:43.682Z,93465.22
2019-04-29T13:24:22.938Z,93467.30
2019-04-29T13:26:44.912Z,93455.92
2019-04-29T13:29:26.349Z,93491.55
2019-04-29T13:31:47.102Z,93463.95
2019-04-29T13:34:24.102Z,93472.62
2019-04-29T13:37:06.828Z,93433.48
2019-04-29T13:39:38.451Z,93445.80
2019-04-29T13:41:57.998Z,93421.66
2019-04-29T13:44:28.949Z,93407.82
2019-04-29T13:47:06.392Z,93374.22
2019-04-29T13:49:40.728Z,93402.91
2019-04-29T13:52:12.917Z,93389.77
2019-04-29T13:54:44.315Z,93412.19
2019-04-29T13:57:16.039Z,93433.22
2019-04-29T13:59:50.657Z,93420.58
2019-04-29T14:02:30.611Z,93424.59
2019-04-29T14:05:02.563Z,93416.86
2019-04-29T14:07:32.316Z,93400.36
2019-04-29T14:10:02.037Z,93409.63
2019-04-29T14:15:06.145Z,93384.45
2019-04-29T14:17:37.522Z,93383.73
2019-04-29T14:18:53.484Z,93393.41
2019-04-29T14:20:10.832Z,93368.33
2019-04-29T14:22:39.296Z,93359.45
2019-04-29T14:25:08.996Z,93351.20
2019-04-29T14:27:39.839Z,93362.70
2019-04-29T14:30:14.700Z,93343.16
2019-04-29T14:32:49.514Z,93345.27
2019-04-29T14:35:29.901Z,93351.95
2019-04-29T14:38:05.246Z,93335.37
2019-04-29T14:40:38.914Z,93345.90
2019-04-29T14:43:31.896Z,93313.30
2019-04-29T14:46:17.067Z,93315.02
2019-04-29T14:48:50.655Z,93336.12
2019-04-29T14:51:21.143Z,93352.58
2019-04-29T14:53:56.886Z,93354.73
2019-04-29T14:56:32.789Z,93347.97
2019-04-29T14:59:07.164Z,93315.36
2019-04-29T15:01:36.499Z,93259.72
2019-04-29T15:04:18.601Z,93206.36
2019-04-29T15:06:46.158Z,93235.70
2019-04-29T15:09:17.778Z,93280.31
2019-04-29T15:12:02.095Z,93307.25
2019-04-29T15:14:49.913Z,93298.90
2019-04-29T15:17:40.324Z,93304.73
2019-04-29T15:20:25.340Z,93326.53
2019-04-29T15:22:59.915Z,93303.23
2019-04-29T15:25:30.071Z,93351.94
2019-04-29T15:27:59.802Z,93364.59
2019-04-29T15:30:31.801Z,93365.55
2019-04-29T15:33:04.859Z,93368.58
2019-04-29T15:35:34.662Z,93357.52
2019-04-29T15:38:05.537Z,93370.47
2019-04-29T15:40:42.839Z,93399.69
2019-04-29T15:43:12.264Z,93397.16
2019-04-29T15:45:45.914Z,93414.23
2019-04-29T15:48:17.673Z,93409.27
2019-04-29T15:50:47.451Z,93407.48
2019-04-29T15:53:17.255Z,93378.06
2019-04-29T15:55:46.991Z,93423.45
2019-04-29T15:58:17.169Z,93419.18
2019-04-29T16:00:48.379Z,93388.09
2019-04-29T16:03:19.554Z,93406.17
2019-04-29T16:06:19.263Z,93398.13
2019-04-29T16:08:30.247Z,93388.30
2019-04-29T16:11:04.444Z,93395.77
2019-04-29T16:13:34.763Z,93405.98
2019-04-29T16:16:06.619Z,93433.62
2019-04-29T16:18:36.755Z,93435.60
2019-04-29T16:21:11.046Z,93439.13
2019-04-29T16:23:42.238Z,93446.59
2019-04-29T16:26:11.878Z,93437.36
2019-04-29T16:28:43.209Z,93434.49
2019-04-29T16:31:14.473Z,93441.95
2019-04-29T16:33:47.610Z,93430.55
2019-04-29T16:36:16.267Z,93437.27
2019-04-29T16:38:46.383Z,93443.69
2019-04-29T16:41:40.687Z,93455.41
2019-04-29T16:44:34.898Z,93462.47
2019-04-29T16:46:49.543Z,93461.28
2019-04-29T16:49:22.453Z,93446.42
2019-04-29T16:51:55.951Z,93462.69
2019-04-29T16:56:57.810Z,93461.87
2019-04-29T16:59:30.822Z,93475.72
2019-04-29T17:02:01.328Z,93472.80
2019-04-29T17:04:32.705Z,93486.25
2019-04-29T17:07:12.129Z,93479.55
2019-04-29T17:09:46.651Z,93476.98
2019-04-29T17:12:20.125Z,93491.80
2019-04-29T17:15:04.129Z,93478.19
2019-04-29T17:17:28.921Z,93480.76
2019-04-29T17:19:57.065Z,93482.28
2019-04-29T17:22:27.805Z,93486.02
2019-04-29T17:25:03.738Z,93479.68
2019-04-29T17:27:45.272Z,93478.35
2019-04-29T17:30:27.152Z,93472.94
2019-04-29T17:32:59.948Z,93477.64
2019-04-29T17:35:18.562Z,93460.42
2019-04-29T17:35:36.574Z,93463.88
2019-04-29T17:38:06.432Z,93486.70
2019-04-29T17:40:36.874Z,93485.34
2019-04-29T17:43:11.339Z,93477.06
2019-04-29T17:45:52.926Z,93487.59
2019-04-29T17:48:42.870Z,93505.91
2019-04-29T17:51:13.150Z,93521.89
2019-04-29T17:53:46.505Z,93501.96
2019-04-29T17:56:18.516Z,93485.95
2019-04-29T17:58:51.797Z,93478.22
2019-04-29T18:01:31.935Z,93468.39
2019-04-29T18:04:06.097Z,93469.00
2019-04-29T18:06:40.494Z,93482.94
2019-04-29T18:09:29.459Z,93457.55
2019-04-29T18:12:04.943Z,93446.28
2019-04-29T18:14:40.298Z,93428.33
2019-04-29T18:17:11.989Z,93424.36
2019-04-29T18:20:02.167Z,93419.48
2019-04-29T18:23:00.697Z,93414.39
2019-04-29T18:25:36.691Z,93410.97
2019-04-29T18:28:11.210Z,93415.53
2019-04-29T18:30:42.851Z,93407.48
2019-04-29T18:33:15.044Z,93411.88
2019-04-29T18:35:46.353Z,93407.48
2019-04-29T18:38:16.912Z,93399.07
2019-04-29T18:40:49.511Z,93397.86
2019-04-29T18:43:23.075Z,93399.95
2019-04-29T18:45:59.229Z,93405.55
2019-04-29T18:48:30.020Z,93412.88
2019-04-29T18:50:59.911Z,93412.98
2019-04-29T18:53:35.483Z,93425.03
2019-04-29T18:56:06.627Z,93423.40
2019-04-29T18:58:37.002Z,93433.73
2019-04-29T19:01:08.643Z,93437.77
2019-04-29T19:03:58.415Z,93433.81
2019-04-29T19:06:28.438Z,93533.79
2019-04-29T19:09:01.681Z,93558.03
2019-04-29T19:11:32.892Z,93525.48
2019-04-29T19:14:05.202Z,93488.95
2019-04-29T19:16:39.227Z,93472.20
2019-04-29T19:19:07.895Z,93446.06
2019-04-29T19:21:40.078Z,93440.09
2019-04-29T19:24:10.470Z,93412.12
2019-04-29T19:26:41.681Z,93405.55
2019-04-29T19:29:13.442Z,93381.85
2019-04-29T19:31:49.386Z,93382.81
2019-04-29T19:34:18.853Z,93376.97
2019-04-29T19:36:50.804Z,93360.00
2019-04-29T19:39:21.701Z,93356.05
2019-04-29T19:41:52.072Z,93396.70
2019-04-29T19:44:26.493Z,93396.38
2019-04-29T19:46:56.288Z,93366.36
2019-04-29T19:49:25.792Z,93410.67
2019-04-29T19:51:58.493Z,93461.53
2019-04-29T19:54:29.377Z,93485.45
2019-04-29T19:57:03.442Z,93449.16
2019-04-29T19:59:32.665Z,93405.73
2019-04-29T20:02:08.156Z,93389.17
2019-04-29T20:04:37.657Z,93380.42
2019-04-29T20:07:10.543Z,93374.78
2019-04-29T20:09:41.872Z,93374.48
2019-04-29T20:12:17.813Z,93372.27
2019-04-29T20:14:48.643Z,93393.72
2019-04-29T20:17:21.893Z,93375.70
2019-04-29T20:19:58.684Z,93354.39
2019-04-29T20:22:25.481Z,93349.48
2019-04-29T20:25:00.376Z,93380.69
2019-04-29T20:27:32.560Z,93363.56
2019-04-29T20:30:02.982Z,93339.80
2019-04-29T20:32:36.034Z,93332.20
2019-04-29T20:35:09.132Z,93315.58
2019-04-29T20:37:39.193Z,93300.63
2019-04-29T20:40:10.773Z,93288.11
2019-04-29T20:42:45.393Z,93287.55
2019-04-29T20:45:15.202Z,93312.17
2019-04-29T20:47:47.987Z,93341.97
2019-04-29T20:50:20.589Z,93319.44
2019-04-29T20:52:56.469Z,93277.02
2019-04-29T20:55:23.632Z,93292.34
2019-04-29T20:57:54.978Z,93278.48
2019-04-29T21:00:28.153Z,93258.64
2019-04-29T21:02:59.140Z,93253.01
2019-04-29T21:05:45.240Z,93250.96
2019-04-29T21:08:14.268Z,93271.89
2019-04-29T21:10:37.852Z,93263.33
2019-04-29T21:13:20.337Z,93242.61
2019-04-29T21:15:59.554Z,93258.07
2019-04-29T21:18:29.345Z,93237.41
2019-04-29T21:21:04.489Z,93243.54
2019-04-29T21:23:35.389Z,93230.23
2019-04-29T21:26:08.443Z,93229.86
2019-04-29T21:28:41.193Z,93217.52
2019-04-29T21:31:11.755Z,93216.78
2019-04-29T21:33:42.965Z,93221.71
2019-04-29T21:36:32.256Z,93222.73
2019-04-29T21:39:06.092Z,93226.94
2019-04-29T21:41:36.821Z,93247.09
2019-04-29T21:44:07.536Z,93250.96
2019-04-29T21:46:37.462Z,93236.73
2019-04-29T21:49:11.595Z,93307.83
2019-04-29T21:51:48.425Z,93239.77
2019-04-29T21:54:15.766Z,93225.16
2019-04-29T21:56:48.162Z,93225.22
2019-04-29T21:59:17.975Z,93244.57
2019-04-29T22:01:48.469Z,93191.55
2019-04-29T22:04:18.187Z,93209.16
2019-04-29T22:06:47.886Z,93217.87
2019-04-29T22:09:18.148Z,93207.17
2019-04-29T22:11:49.178Z,93214.38
2019-04-29T22:14:19.018Z,93208.31
2019-04-29T22:16:53.638Z,93244.89
2019-04-29T22:19:26.143Z,93199.67
2019-04-29T22:21:57.863Z,93197.08
2019-04-29T22:24:29.060Z,93180.64
2019-04-29T22:27:04.202Z,93184.10
2019-04-29T22:29:36.663Z,93169.11
2019-04-29T22:32:09.286Z,93134.67
2019-04-29T22:34:36.353Z,93170.19
2019-04-29T22:37:06.140Z,93220.20
2019-04-29T22:39:37.019Z,93225.52
2019-04-29T22:42:09.465Z,93194.39
2019-04-29T22:44:39.449Z,93204.70
2019-04-29T22:47:09.111Z,93245.19
2019-04-29T22:49:38.913Z,93200.79
2019-04-29T22:52:10.991Z,93169.50
2019-04-29T22:54:41.010Z,93179.21
2019-04-29T22:57:10.969Z,93173.83
2019-04-29T22:59:41.111Z,93182.02
2019-04-29T23:02:10.773Z,93216.48
2019-04-29T23:04:40.469Z,93172.95
2019-04-29T23:07:12.781Z,93136.77
2019-04-29T23:09:46.303Z,93112.23
2019-04-29T23:12:18.427Z,93168.62
2019-04-29T23:14:46.393Z,93153.78
2019-04-29T23:17:16.140Z,93127.48
2019-04-29T23:19:50.761Z,93151.47
2019-04-29T23:22:26.293Z,93125.61
2019-04-29T23:25:05.684Z,93115.58
2019-04-29T23:27:36.194Z,93114.28
2019-04-29T23:30:07.444Z,93121.20
2019-04-29T23:32:39.424Z,93119.36
2019-04-29T23:35:10.056Z,93085.66
2019-04-29T23:37:39.903Z,93099.12
2019-04-29T23:40:10.591Z,93114.02
2019-04-29T23:42:43.646Z,93072.79
2019-04-29T23:45:14.545Z,93049.41
2019-04-29T23:47:46.831Z,93124.99
2019-04-29T23:50:18.801Z,93093.45
2019-04-29T23:52:51.799Z,93067.89
2019-04-29T23:55:25.652Z,93022.58
2019-04-29T23:58:04.346Z,93012.23
